Hustle, Virginia
Current Conditions -  °F | °C
As of 3:35 AM on Thursday 23 Oct 2014 (Local Time) from KXSA Reporting Station
Overcast Overcast  
Wind Chill: 52°   Ceiling: 3600
Heat Index: 52°   Visibility: 10mi
Dew Point: 40°   Wind: 10mph
Humidity: 62%   Direction: 280°W
Pressure: 29.89"   Gusts: NA
Location:  38.04°N, 77.07°W
Report Text: KXSA 230735Z AUTO 28009KT 10SM OVC036 11/04 A2989 RMK AO2 T01120042
Loading
Personal Weather Stations






























Interactive Weather Map
Tropical Storm Tracking
New forecast layout! Learn more

10-Day Weather Forecast

Advertisements
Track Severe Weather on mobile